John_paul K — PBHY — position and weather

sailwx.info

Track history (hours):
 
Tides and Currents Weather Stations Pressure Air Temp Water Temp Dewpoint Dewpoint Depression Visibility Wind Speed Wind Dir Waves Ship Positions

John_paul K

Last reported at 2016-Aug-24 14:25 UTC. Time now 2016-Aug-25 09:42 UTC.
Position N 43°38' W 006°08'.

Length 90 m; draft 4 m.

Type: Cargo ship. MMSI: 245181000.

Date/timePositionNaut miles runAvg speedWind from/ knotsBaromVisibWave heightAir tempDewpointWater temp
2016-Aug-24 14:25N 43°38' W 006°08'8 0.5
2016-Aug-23 22:33N 43°36' W 005°58'4 1.0
2016-Aug-23 18:28N 43°40' W 006°01'4 0.1
2016-Aug-22 10:27N 43°36' W 005°58'8 8.8
2016-Aug-22 09:33N 43°44' W 005°58'95 9.1
2016-Aug-21 23:04N 45°19' W 005°58'5 9.3
2016-Aug-21 22:33N 45°24' W 005°58'10 9.6
2016-Aug-21 21:34N 45°34' W 005°58'9 8.7
2016-Aug-21 20:33N 45°43' W 005°58'265 7.1
2016-Aug-20 07:09N 49°46' W 003°24'2 3.2
2016-Aug-20 06:32N 49°47' W 003°21'3 3.1
2016-Aug-20 05:33N 49°49' W 003°17'4 4.5
2016-Aug-20 04:33N 49°51' W 003°12'7 6.5
2016-Aug-20 03:33N 49°54' W 003°03'10 9.4
2016-Aug-20 02:26N 49°59' W 002°48'110 8.4
2016-Aug-19 13:15N 50°31' W 000°03'810.2
2016-Aug-19 12:31N 50°34' E 000°08'36 8.6
2016-Aug-19 08:20N 50°50' E 000°59'810.8
2016-Aug-19 07:33N 50°55' E 001°10'1412.8
2016-Aug-19 06:30N 51°04' E 001°26'1111.5
2016-Aug-19 05:33N 51°11' E 001°39'10 9.9
2016-Aug-19 04:33N 51°18' E 001°50'9 8.7
2016-Aug-19 03:33N 51°25' E 001°58'8 8.0
2016-Aug-19 02:33N 51°31' E 002°06'8 7.7
2016-Aug-19 01:33N 51°37' E 002°14'8 8.0
2016-Aug-19 00:33N 51°44' E 002°22'9 9.0
2016-Aug-18 23:32N 51°51' E 002°31'1010.4
2016-Aug-18 22:33N 51°59' E 002°41'1111.2
2016-Aug-18 21:32N 52°08' E 002°53'1111.4
2016-Aug-18 20:33N 52°16' E 003°04'1211.2
2016-Aug-18 19:28N 52°26' E 003°17'90 9.7
2016-Aug-18 10:10N 53°32' E 004°58'610.0
2016-Aug-18 09:33N 53°35' E 005°07'9 9.2
2016-Aug-18 08:33N 53°37' E 005°22'9 8.7
2016-Aug-18 07:33N 53°40' E 005°36'9 8.6
2016-Aug-18 06:33N 53°43' E 005°50'10 8.9
2016-Aug-18 05:29N 53°46' E 006°05'9 9.7
2016-Aug-18 04:33N 53°48' E 006°20'1110.8
2016-Aug-18 03:33N 53°51' E 006°37'1111.1
2016-Aug-18 02:33N 53°54' E 006°56'1110.9
2016-Aug-18 01:33N 53°57' E 007°14'1110.6
2016-Aug-18 00:33N 54°00' E 007°31'8 7.5
2016-Aug-17 23:28N 54°01' E 007°45'9 9.9
2016-Aug-17 22:33N 54°02' E 007°60'9 8.9
2016-Aug-17 21:33N 54°00' E 008°15'12 9.6
2016-Aug-17 20:20N 53°58' E 008°34'810.0
2016-Aug-17 19:33N 53°52' E 008°44'1312.6
2016-Aug-17 18:33N 53°53' E 009°05'1211.8
2016-Aug-17 17:34N 53°48' E 009°23'1413.6
2016-Aug-17 16:33N 53°36' E 009°35'1111.3
2016-Aug-17 15:33N 53°33' E 009°53'3 2.6
2016-Aug-17 14:32N 53°31' E 009°57'0 0.0
2016-Aug-17 13:32N 53°31' E 009°57'0 0.0
2016-Aug-17 12:32N 53°31' E 009°57'0 0.0
2016-Aug-17 11:32N 53°31' E 009°57'1 1.3
2016-Aug-17 10:33N 53°32' E 009°56'1 0.9
2016-Aug-17 09:31N 53°32' E 009°58'0 0.0
2016-Aug-17 08:31N 53°32' E 009°58'0 0.0
2016-Aug-17 07:31N 53°32' E 009°58'0 0.0
2016-Aug-17 06:31N 53°32' E 009°58'0 0.0
2016-Aug-17 05:31N 53°32' E 009°58'0 0.0
2016-Aug-17 04:31N 53°32' E 009°58'0 0.0
2016-Aug-17 03:31N 53°32' E 009°58'0 0.0
2016-Aug-17 02:31N 53°32' E 009°58'0 0.0
2016-Aug-17 01:31N 53°32' E 009°58'0 0.0
2016-Aug-17 00:31N 53°32' E 009°58'0 0.0
2016-Aug-16 23:31N 53°32' E 009°58'0 0.0
2016-Aug-16 22:28N 53°32' E 009°58'0 0.0
2016-Aug-16 21:31N 53°32' E 009°58'0 0.0
2016-Aug-16 20:31N 53°32' E 009°58'0 0.0
2016-Aug-16 19:31N 53°32' E 009°58'0 0.0
2016-Aug-16 18:31N 53°32' E 009°58'1 1.1
2016-Aug-16 17:31N 53°31' E 009°57'0 0.0
2016-Aug-16 16:31N 53°31' E 009°57'0 0.0
2016-Aug-16 15:31N 53°31' E 009°57'0 0.0
2016-Aug-16 14:31N 53°31' E 009°57'0 0.0
2016-Aug-16 13:31N 53°31' E 009°57'0 0.0
2016-Aug-16 12:31N 53°31' E 009°57'0 0.0
2016-Aug-16 11:31N 53°31' E 009°57'0 0.0
2016-Aug-16 10:31N 53°31' E 009°57'0 0.0
2016-Aug-16 09:31N 53°31' E 009°57'0 0.0
2016-Aug-16 08:31N 53°31' E 009°57'0 0.0
2016-Aug-16 07:34N 53°31' E 009°57'1 1.5
2016-Aug-16 06:33N 53°32' E 009°56'1 0.6
2016-Aug-16 04:33N 53°32' E 009°57'0 0.0
2016-Aug-16 03:33N 53°32' E 009°57'0 0.0
2016-Aug-16 02:33N 53°32' E 009°57'0 0.0
2016-Aug-16 01:33N 53°32' E 009°57'0 0.0
2016-Aug-16 00:33N 53°32' E 009°57'0 0.0
2016-Aug-15 23:33N 53°32' E 009°57'0 0.0
2016-Aug-15 22:33N 53°32' E 009°57'0 0.0
2016-Aug-15 21:33N 53°32' E 009°57'0 0.0
2016-Aug-15 20:33N 53°32' E 009°57'0 0.0
2016-Aug-15 19:33N 53°32' E 009°57'0 0.0
2016-Aug-15 18:33N 53°32' E 009°57'0 0.0
2016-Aug-15 17:33N 53°32' E 009°57'0 0.0
2016-Aug-15 16:33N 53°32' E 009°57'0 0.0
2016-Aug-15 15:33N 53°32' E 009°57'0 0.0
2016-Aug-15 14:33N 53°32' E 009°57'0 0.0
2016-Aug-15 13:33N 53°32' E 009°57'0 0.0
2016-Aug-15 12:33N 53°32' E 009°57'0 0.0
2016-Aug-15 11:33N 53°32' E 009°57'0 0.0
2016-Aug-15 10:33N 53°32' E 009°57'0 0.0
2016-Aug-15 09:33N 53°32' E 009°57'0 0.0
2016-Aug-15 08:33N 53°32' E 009°57'1 0.8
2016-Aug-15 07:34N 53°32' E 009°57'9 9.4
2016-Aug-15 06:33N 53°34' E 009°41'2010.1
2016-Aug-15 04:34N 53°50' E 009°21'6 6.3
2016-Aug-15 03:32N 53°53' E 009°11'0 0.1
2016-Aug-15 02:32N 53°53' E 009°11'0 0.0
2016-Aug-15 01:32N 53°53' E 009°11'0 0.0
2016-Aug-15 00:32N 53°53' E 009°11'0 0.1
2016-Aug-14 23:32N 53°53' E 009°11'0 0.0
2016-Aug-14 22:32N 53°53' E 009°11'0 0.0
2016-Aug-14 21:32N 53°53' E 009°11'0 0.0
2016-Aug-14 20:32N 53°53' E 009°11'0 0.0
2016-Aug-14 19:32N 53°53' E 009°11'0 0.0
2016-Aug-14 18:32N 53°53' E 009°11'0 0.1
2016-Aug-14 17:29N 53°53' E 009°11'0 0.1
2016-Aug-14 16:32N 53°53' E 009°11'0 0.0
2016-Aug-14 15:32N 53°53' E 009°11'0 0.0
2016-Aug-14 14:32N 53°53' E 009°11'  
Track history (hours):
 
Tides and Currents Weather Stations Pressure Air Temp Water Temp Dewpoint Dewpoint Depression Visibility Wind Speed Wind Dir Waves Ship Positions

John_paul K

Last reported at 2016-Aug-24 14:25 UTC. Time now 2016-Aug-25 09:42 UTC.
Position N 43°38' W 006°08'.

Length 90 m; draft 4 m.

Type: Cargo ship. MMSI: 245181000.

Date/timePositionNaut miles runAvg speedWind from/ knotsBaromVisibWave heightAir tempDewpointWater temp
2016-Aug-24 14:25N 43°38' W 006°08'8 0.5
2016-Aug-23 22:33N 43°36' W 005°58'4 1.0
2016-Aug-23 18:28N 43°40' W 006°01'4 0.1
2016-Aug-22 10:27N 43°36' W 005°58'8 8.8
2016-Aug-22 09:33N 43°44' W 005°58'95 9.1
2016-Aug-21 23:04N 45°19' W 005°58'5 9.3
2016-Aug-21 22:33N 45°24' W 005°58'10 9.6
2016-Aug-21 21:34N 45°34' W 005°58'9 8.7
2016-Aug-21 20:33N 45°43' W 005°58'265 7.1
2016-Aug-20 07:09N 49°46' W 003°24'2 3.2
2016-Aug-20 06:32N 49°47' W 003°21'3 3.1
2016-Aug-20 05:33N 49°49' W 003°17'4 4.5
2016-Aug-20 04:33N 49°51' W 003°12'7 6.5
2016-Aug-20 03:33N 49°54' W 003°03'10 9.4
2016-Aug-20 02:26N 49°59' W 002°48'110 8.4
2016-Aug-19 13:15N 50°31' W 000°03'810.2
2016-Aug-19 12:31N 50°34' E 000°08'36 8.6
2016-Aug-19 08:20N 50°50' E 000°59'810.8
2016-Aug-19 07:33N 50°55' E 001°10'1412.8
2016-Aug-19 06:30N 51°04' E 001°26'1111.5
2016-Aug-19 05:33N 51°11' E 001°39'10 9.9
2016-Aug-19 04:33N 51°18' E 001°50'9 8.7
2016-Aug-19 03:33N 51°25' E 001°58'8 8.0
2016-Aug-19 02:33N 51°31' E 002°06'8 7.7
2016-Aug-19 01:33N 51°37' E 002°14'8 8.0
2016-Aug-19 00:33N 51°44' E 002°22'9 9.0
2016-Aug-18 23:32N 51°51' E 002°31'1010.4
2016-Aug-18 22:33N 51°59' E 002°41'1111.2
2016-Aug-18 21:32N 52°08' E 002°53'1111.4
2016-Aug-18 20:33N 52°16' E 003°04'1211.2
2016-Aug-18 19:28N 52°26' E 003°17'90 9.7
2016-Aug-18 10:10N 53°32' E 004°58'610.0
2016-Aug-18 09:33N 53°35' E 005°07'9 9.2
2016-Aug-18 08:33N 53°37' E 005°22'9 8.7
2016-Aug-18 07:33N 53°40' E 005°36'9 8.6
2016-Aug-18 06:33N 53°43' E 005°50'10 8.9
2016-Aug-18 05:29N 53°46' E 006°05'9 9.7
2016-Aug-18 04:33N 53°48' E 006°20'1110.8
2016-Aug-18 03:33N 53°51' E 006°37'1111.1
2016-Aug-18 02:33N 53°54' E 006°56'1110.9
2016-Aug-18 01:33N 53°57' E 007°14'1110.6
2016-Aug-18 00:33N 54°00' E 007°31'8 7.5
2016-Aug-17 23:28N 54°01' E 007°45'9 9.9
2016-Aug-17 22:33N 54°02' E 007°60'9 8.9
2016-Aug-17 21:33N 54°00' E 008°15'12 9.6
2016-Aug-17 20:20N 53°58' E 008°34'810.0
2016-Aug-17 19:33N 53°52' E 008°44'1312.6
2016-Aug-17 18:33N 53°53' E 009°05'1211.8
2016-Aug-17 17:34N 53°48' E 009°23'1413.6
2016-Aug-17 16:33N 53°36' E 009°35'1111.3
2016-Aug-17 15:33N 53°33' E 009°53'3 2.6
2016-Aug-17 14:32N 53°31' E 009°57'0 0.0
2016-Aug-17 13:32N 53°31' E 009°57'0 0.0
2016-Aug-17 12:32N 53°31' E 009°57'0 0.0
2016-Aug-17 11:32N 53°31' E 009°57'1 1.3
2016-Aug-17 10:33N 53°32' E 009°56'1 0.9
2016-Aug-17 09:31N 53°32' E 009°58'0 0.0
2016-Aug-17 08:31N 53°32' E 009°58'0 0.0
2016-Aug-17 07:31N 53°32' E 009°58'0 0.0
2016-Aug-17 06:31N 53°32' E 009°58'0 0.0
2016-Aug-17 05:31N 53°32' E 009°58'0 0.0
2016-Aug-17 04:31N 53°32' E 009°58'0 0.0
2016-Aug-17 03:31N 53°32' E 009°58'0 0.0
2016-Aug-17 02:31N 53°32' E 009°58'0 0.0
2016-Aug-17 01:31N 53°32' E 009°58'0 0.0
2016-Aug-17 00:31N 53°32' E 009°58'0 0.0
2016-Aug-16 23:31N 53°32' E 009°58'0 0.0
2016-Aug-16 22:28N 53°32' E 009°58'0 0.0
2016-Aug-16 21:31N 53°32' E 009°58'0 0.0
2016-Aug-16 20:31N 53°32' E 009°58'0 0.0
2016-Aug-16 19:31N 53°32' E 009°58'0 0.0
2016-Aug-16 18:31N 53°32' E 009°58'1 1.1
2016-Aug-16 17:31N 53°31' E 009°57'0 0.0
2016-Aug-16 16:31N 53°31' E 009°57'0 0.0
2016-Aug-16 15:31N 53°31' E 009°57'0 0.0
2016-Aug-16 14:31N 53°31' E 009°57'0 0.0
2016-Aug-16 13:31N 53°31' E 009°57'0 0.0
2016-Aug-16 12:31N 53°31' E 009°57'0 0.0
2016-Aug-16 11:31N 53°31' E 009°57'0 0.0
2016-Aug-16 10:31N 53°31' E 009°57'0 0.0
2016-Aug-16 09:31N 53°31' E 009°57'0 0.0
2016-Aug-16 08:31N 53°31' E 009°57'0 0.0
2016-Aug-16 07:34N 53°31' E 009°57'1 1.5
2016-Aug-16 06:33N 53°32' E 009°56'1 0.6
2016-Aug-16 04:33N 53°32' E 009°57'0 0.0
2016-Aug-16 03:33N 53°32' E 009°57'0 0.0
2016-Aug-16 02:33N 53°32' E 009°57'0 0.0
2016-Aug-16 01:33N 53°32' E 009°57'0 0.0
2016-Aug-16 00:33N 53°32' E 009°57'0 0.0
2016-Aug-15 23:33N 53°32' E 009°57'0 0.0
2016-Aug-15 22:33N 53°32' E 009°57'0 0.0
2016-Aug-15 21:33N 53°32' E 009°57'0 0.0
2016-Aug-15 20:33N 53°32' E 009°57'0 0.0
2016-Aug-15 19:33N 53°32' E 009°57'0 0.0
2016-Aug-15 18:33N 53°32' E 009°57'0 0.0
2016-Aug-15 17:33N 53°32' E 009°57'0 0.0
2016-Aug-15 16:33N 53°32' E 009°57'0 0.0
2016-Aug-15 15:33N 53°32' E 009°57'0 0.0
2016-Aug-15 14:33N 53°32' E 009°57'0 0.0
2016-Aug-15 13:33N 53°32' E 009°57'0 0.0
2016-Aug-15 12:33N 53°32' E 009°57'0 0.0
2016-Aug-15 11:33N 53°32' E 009°57'0 0.0
2016-Aug-15 10:33N 53°32' E 009°57'0 0.0
2016-Aug-15 09:33N 53°32' E 009°57'0 0.0
2016-Aug-15 08:33N 53°32' E 009°57'1 0.8
2016-Aug-15 07:34N 53°32' E 009°57'9 9.4
2016-Aug-15 06:33N 53°34' E 009°41'2010.1
2016-Aug-15 04:34N 53°50' E 009°21'6 6.3
2016-Aug-15 03:32N 53°53' E 009°11'0 0.1
2016-Aug-15 02:32N 53°53' E 009°11'0 0.0
2016-Aug-15 01:32N 53°53' E 009°11'0 0.0
2016-Aug-15 00:32N 53°53' E 009°11'0 0.1
2016-Aug-14 23:32N 53°53' E 009°11'0 0.0
2016-Aug-14 22:32N 53°53' E 009°11'0 0.0
2016-Aug-14 21:32N 53°53' E 009°11'0 0.0
2016-Aug-14 20:32N 53°53' E 009°11'0 0.0
2016-Aug-14 19:32N 53°53' E 009°11'0 0.0
2016-Aug-14 18:32N 53°53' E 009°11'0 0.1
2016-Aug-14 17:29N 53°53' E 009°11'0 0.1
2016-Aug-14 16:32N 53°53' E 009°11'0 0.0
2016-Aug-14 15:32N 53°53' E 009°11'0 0.0
2016-Aug-14 14:32N 53°53' E 009°11'  

Dump ship's entire track history